createdAt,value
2023-04-07T00:00:06.756Z,100431.23
2023-04-07T03:00:35.104Z,100325.58
2023-04-07T03:03:14.053Z,100330.22
2023-04-07T03:05:45.882Z,100331.06
2023-04-07T03:08:14.742Z,100329.45
2023-04-07T03:10:44.267Z,100325.35
2023-04-07T03:13:16.512Z,100327.40
2023-04-07T03:15:45.926Z,100323.48
2023-04-07T03:18:17.018Z,100322.80
2023-04-07T03:20:48.505Z,100323.45
2023-04-07T03:23:17.948Z,100321.84
2023-04-07T03:25:47.552Z,100322.46
2023-04-07T03:28:17.154Z,100322.61
2023-04-07T03:30:46.198Z,100328.90
2023-04-07T03:33:14.673Z,100328.09
2023-04-07T03:35:43.313Z,100330.83
2023-04-07T03:38:12.990Z,100329.94
2023-04-07T03:40:41.599Z,100338.48
2023-04-07T03:43:14.466Z,100337.02
2023-04-07T03:45:43.634Z,100338.42
2023-04-07T03:48:13.066Z,100342.60
2023-04-07T03:50:49.832Z,100341.77
2023-04-07T03:53:20.133Z,100335.58
2023-04-07T03:55:48.940Z,100334.77
2023-04-07T03:58:42.985Z,100334.27
2023-04-07T04:01:14.341Z,100332.48
2023-04-07T04:03:44.231Z,100326.67
2023-04-07T04:06:39.278Z,100328.69
2023-04-07T04:09:27.270Z,100332.84
2023-04-07T04:11:56.565Z,100326.42
2023-04-07T04:14:25.687Z,100330.42
2023-04-07T04:16:58.508Z,100328.23
2023-04-07T04:19:53.120Z,100329.08
2023-04-07T04:22:42.210Z,100336.02
2023-04-07T04:25:11.195Z,100328.98
2023-04-07T04:27:41.398Z,100328.02
2023-04-07T04:30:16.905Z,100338.37
2023-04-07T04:32:51.729Z,100342.42
2023-04-07T04:35:24.501Z,100346.53
2023-04-07T04:38:03.555Z,100345.81
2023-04-07T04:40:32.819Z,100351.34
2023-04-07T04:43:02.031Z,100346.54
2023-04-07T04:45:31.940Z,100349.13
2023-04-07T04:48:00.982Z,100357.14
2023-04-07T04:50:29.605Z,100354.53
2023-04-07T04:52:58.166Z,100357.13
2023-04-07T04:55:26.728Z,100357.04
2023-04-07T04:57:56.216Z,100358.38
2023-04-07T05:00:33.014Z,100352.97
2023-04-07T05:03:04.772Z,100347.29
2023-04-07T05:05:36.598Z,100345.17
2023-04-07T05:08:07.009Z,100349.75
2023-04-07T05:10:39.745Z,100345.61
2023-04-07T05:13:10.477Z,100342.64
2023-04-07T05:15:41.670Z,100342.92
2023-04-07T05:18:12.301Z,100343.42
2023-04-07T05:20:42.281Z,100343.55
2023-04-07T05:23:11.748Z,100343.09
2023-04-07T05:25:41.046Z,100344.70
2023-04-07T05:28:10.600Z,100345.38
2023-04-07T05:30:39.834Z,100350.61
2023-04-07T05:33:09.213Z,100352.20
2023-04-07T05:35:46.740Z,100356.71
2023-04-07T05:38:17.364Z,100360.22
2023-04-07T05:40:47.846Z,100359.98
2023-04-07T05:43:23.144Z,100362.58
2023-04-07T05:45:52.143Z,100366.59
2023-04-07T05:48:22.198Z,100369.85
2023-04-07T05:50:51.570Z,100367.63
2023-04-07T05:53:20.362Z,100366.04
2023-04-07T05:55:49.191Z,100366.89
2023-04-07T05:58:27.191Z,100367.84
2023-04-07T06:00:57.729Z,100361.95
2023-04-07T06:03:27.146Z,100362.98
2023-04-07T06:06:03.863Z,100363.51
2023-04-07T06:08:32.958Z,100360.56
2023-04-07T06:11:02.459Z,100359.98
2023-04-07T06:13:31.290Z,100363.63
2023-04-07T06:15:59.659Z,100360.74
2023-04-07T06:18:28.513Z,100364.59
2023-04-07T06:20:57.788Z,100359.07
2023-04-07T06:23:28.081Z,100357.27
2023-04-07T06:25:57.327Z,100354.98
2023-04-07T06:28:29.330Z,100355.97
2023-04-07T06:30:59.564Z,100349.06
2023-04-07T06:33:29.038Z,100348.80
2023-04-07T06:35:59.504Z,100348.01
2023-04-07T06:38:28.891Z,100343.45
2023-04-07T06:40:57.831Z,100347.77
2023-04-07T06:43:26.144Z,100350.05
2023-04-07T06:46:03.155Z,100350.35
2023-04-07T06:48:31.371Z,100349.73
2023-04-07T06:51:00.751Z,100347.41
2023-04-07T06:53:29.175Z,100344.97
2023-04-07T06:56:04.711Z,100347.63
2023-04-07T06:58:33.759Z,100350.22
2023-04-07T07:01:03.779Z,100353.70
2023-04-07T07:03:32.845Z,100353.64
2023-04-07T07:06:01.927Z,100349.38
2023-04-07T07:08:31.092Z,100350.42
2023-04-07T07:10:59.581Z,100351.30
2023-04-07T07:13:28.767Z,100346.52
2023-04-07T07:15:57.189Z,100348.16
2023-04-07T07:18:25.805Z,100346.35
2023-04-07T07:20:54.044Z,100352.70
2023-04-07T07:23:22.334Z,100351.98
2023-04-07T07:25:51.464Z,100348.51
2023-04-07T07:28:21.915Z,100353.96
2023-04-07T07:30:50.166Z,100354.76
2023-04-07T07:33:19.039Z,100347.58
2023-04-07T07:35:47.578Z,100347.62
2023-04-07T07:38:16.294Z,100351.44
2023-04-07T07:40:44.440Z,100342.86
2023-04-07T07:43:12.750Z,100343.42
2023-04-07T07:45:41.132Z,100346.16
2023-04-07T07:48:09.743Z,100348.58
2023-04-07T07:50:38.153Z,100349.00
2023-04-07T07:53:07.107Z,100341.23
2023-04-07T07:55:35.453Z,100347.50
2023-04-07T07:58:03.795Z,100351.50
2023-04-07T08:00:32.215Z,100348.21
2023-04-07T08:03:00.822Z,100352.77
2023-04-07T08:05:29.494Z,100354.48
2023-04-07T08:07:58.061Z,100358.21
2023-04-07T08:10:26.657Z,100360.11
2023-04-07T08:12:55.389Z,100360.05
2023-04-07T08:15:23.862Z,100362.94
2023-04-07T08:17:54.603Z,100361.31
2023-04-07T08:20:24.121Z,100358.09
2023-04-07T08:22:52.590Z,100357.76
2023-04-07T08:25:21.269Z,100351.56
2023-04-07T08:27:50.005Z,100356.27
2023-04-07T08:30:19.282Z,100362.72
2023-04-07T08:32:48.121Z,100361.83
2023-04-07T08:35:16.650Z,100358.88
2023-04-07T08:37:44.987Z,100358.23
2023-04-07T08:40:13.704Z,100355.35
2023-04-07T08:42:43.726Z,100350.98
2023-04-07T08:45:12.909Z,100354.35
2023-04-07T08:47:44.279Z,100351.77
2023-04-07T08:50:12.966Z,100345.89
2023-04-07T08:52:44.679Z,100346.16
2023-04-07T08:55:13.439Z,100350.92
2023-04-07T08:57:42.916Z,100357.79
2023-04-07T09:00:11.904Z,100352.77
2023-04-07T09:02:44.084Z,100355.38
2023-04-07T09:05:14.770Z,100348.27
2023-04-07T09:07:46.389Z,100353.94
2023-04-07T09:10:18.535Z,100353.22
2023-04-07T09:12:47.644Z,100356.70
2023-04-07T09:15:16.050Z,100357.80
2023-04-07T09:17:44.546Z,100351.34
2023-04-07T09:20:13.196Z,100350.03
2023-04-07T09:22:48.302Z,100346.90
2023-04-07T09:25:22.749Z,100341.73
2023-04-07T09:27:58.647Z,100338.25
2023-04-07T09:30:27.446Z,100334.67
2023-04-07T09:32:56.659Z,100331.94
2023-04-07T09:35:25.193Z,100329.34
2023-04-07T09:38:07.185Z,100324.32
2023-04-07T09:40:36.876Z,100324.75
2023-04-07T09:43:06.446Z,100322.40
2023-04-07T09:45:39.532Z,100323.48
2023-04-07T09:48:09.377Z,100319.60
2023-04-07T09:50:40.168Z,100319.76
2023-04-07T09:53:09.593Z,100317.63
2023-04-07T09:55:40.970Z,100316.56
2023-04-07T09:58:13.343Z,100317.77
2023-04-07T10:00:42.180Z,100310.69
2023-04-07T10:03:11.042Z,100309.96
2023-04-07T10:05:39.605Z,100318.05
2023-04-07T10:08:08.263Z,100315.95
2023-04-07T10:10:37.382Z,100316.95
2023-04-07T10:13:06.828Z,100318.91
2023-04-07T10:15:37.023Z,100322.67
2023-04-07T10:18:07.456Z,100331.69
2023-04-07T10:20:39.785Z,100332.89
2023-04-07T10:23:20.430Z,100335.93
2023-04-07T10:25:52.784Z,100336.63
2023-04-07T10:28:23.536Z,100334.98
2023-04-07T10:30:52.634Z,100330.75
2023-04-07T10:33:40.100Z,100327.67
2023-04-07T10:36:08.775Z,100323.48
2023-04-07T10:38:37.437Z,100319.15
2023-04-07T10:41:24.892Z,100312.92
2023-04-07T10:43:53.530Z,100303.11
2023-04-07T10:46:22.490Z,100305.16
2023-04-07T10:49:23.975Z,100305.91
2023-04-07T10:52:10.830Z,100307.05
2023-04-07T10:54:40.360Z,100304.33
2023-04-07T10:57:10.830Z,100303.89
2023-04-07T10:59:41.077Z,100305.36
2023-04-07T11:02:13.278Z,100306.41
2023-04-07T11:04:44.368Z,100305.27
2023-04-07T11:07:14.641Z,100304.52
2023-04-07T11:09:43.272Z,100306.02
2023-04-07T11:12:25.471Z,100302.86
2023-04-07T11:14:54.215Z,100304.44
2023-04-07T11:17:23.528Z,100300.48
2023-04-07T11:19:55.618Z,100300.66
2023-04-07T11:22:30.017Z,100296.71
2023-04-07T11:24:59.157Z,100299.25
2023-04-07T11:27:28.677Z,100296.99
2023-04-07T11:29:57.260Z,100292.67
2023-04-07T11:32:30.802Z,100293.59
2023-04-07T11:35:00.210Z,100289.18
2023-04-07T11:37:29.348Z,100294.20
2023-04-07T11:39:59.140Z,100291.16
2023-04-07T11:42:41.309Z,100297.71
2023-04-07T11:45:17.964Z,100299.36
2023-04-07T11:47:46.990Z,100299.97
2023-04-07T11:50:16.003Z,100303.95
2023-04-07T11:52:45.803Z,100307.05
2023-04-07T11:55:26.871Z,100304.02
2023-04-07T11:57:55.565Z,100299.30
2023-04-07T12:00:24.890Z,100297.84
2023-04-07T12:02:53.902Z,100308.08
2023-04-07T12:05:22.964Z,100309.31
2023-04-07T12:07:56.199Z,100313.71
2023-04-07T12:10:28.903Z,100315.45
2023-04-07T12:12:59.400Z,100316.70
2023-04-07T12:15:28.697Z,100316.33
2023-04-07T12:17:57.772Z,100317.97
2023-04-07T12:20:27.833Z,100315.33
2023-04-07T12:22:57.409Z,100316.58
2023-04-07T12:25:28.192Z,100311.65
2023-04-07T12:27:57.217Z,100310.83
2023-04-07T12:30:26.332Z,100310.21
2023-04-07T12:32:55.272Z,100308.95
2023-04-07T12:35:24.876Z,100313.98
2023-04-07T12:37:54.135Z,100306.52
2023-04-07T12:40:23.891Z,100310.66
2023-04-07T12:42:52.920Z,100308.89
2023-04-07T12:45:21.705Z,100297.74
2023-04-07T12:47:50.587Z,100294.38
2023-04-07T12:50:19.036Z,100299.15
2023-04-07T12:52:47.695Z,100295.32
2023-04-07T12:55:16.591Z,100291.48
2023-04-07T12:57:48.549Z,100286.14
2023-04-07T13:00:17.748Z,100290.39
2023-04-07T13:02:46.874Z,100290.27
2023-04-07T13:05:16.170Z,100291.87
2023-04-07T13:07:46.141Z,100290.84
2023-04-07T13:10:16.447Z,100292.35
2023-04-07T13:12:45.479Z,100295.17
2023-04-07T13:15:13.959Z,100295.45
2023-04-07T13:17:42.980Z,100297.05
2023-04-07T13:20:11.751Z,100296.26
2023-04-07T13:22:49.205Z,100298.41
2023-04-07T13:25:24.548Z,100291.09
2023-04-07T13:27:53.511Z,100292.79
2023-04-07T13:30:22.945Z,100297.86
2023-04-07T13:32:52.402Z,100299.66
2023-04-07T13:35:21.661Z,100294.14
2023-04-07T13:37:50.835Z,100293.59
2023-04-07T13:40:19.904Z,100291.58
2023-04-07T13:42:48.977Z,100292.13
2023-04-07T13:45:17.412Z,100294.34
2023-04-07T13:47:46.595Z,100290.39
2023-04-07T13:50:16.501Z,100284.40
2023-04-07T13:52:45.579Z,100281.45
2023-04-07T13:55:16.754Z,100279.27
2023-04-07T13:57:45.895Z,100271.92
2023-04-07T14:00:15.996Z,100271.23
2023-04-07T14:02:46.314Z,100271.84
2023-04-07T14:05:15.448Z,100269.60
2023-04-07T14:07:44.991Z,100270.69
2023-04-07T14:10:13.923Z,100269.96
2023-04-07T14:12:42.952Z,100268.33
2023-04-07T14:15:11.349Z,100265.27
2023-04-07T14:17:40.389Z,100290.58
2023-04-07T14:20:09.930Z,100314.21
2023-04-07T14:22:39.352Z,100314.38
2023-04-07T14:25:08.275Z,100314.09
2023-04-07T14:27:37.518Z,100302.72
2023-04-07T14:30:06.970Z,100299.52
2023-04-07T14:32:36.224Z,100296.25
2023-04-07T14:35:05.481Z,100306.99
2023-04-07T14:37:36.508Z,100311.09
2023-04-07T14:40:05.901Z,100315.72
2023-04-07T14:42:34.718Z,100316.20
2023-04-07T14:45:03.015Z,100319.35
2023-04-07T14:47:32.085Z,100318.05
2023-04-07T14:50:00.966Z,100317.77
2023-04-07T14:52:30.744Z,100317.08
2023-04-07T14:55:00.466Z,100315.64
2023-04-07T14:57:29.491Z,100319.77
2023-04-07T14:59:58.236Z,100322.11
2023-04-07T15:02:29.379Z,100324.08
2023-04-07T15:04:58.773Z,100327.11
2023-04-07T15:07:26.935Z,100324.61
2023-04-07T15:09:56.087Z,100319.86
2023-04-07T15:12:24.641Z,100319.84
2023-04-07T15:14:53.413Z,100314.90
2023-04-07T15:17:30.287Z,100316.31
2023-04-07T15:20:10.321Z,100323.30
2023-04-07T15:22:38.534Z,100326.67
2023-04-07T15:25:07.436Z,100325.88
2023-04-07T15:27:36.165Z,100324.31
2023-04-07T15:30:04.663Z,100330.98
2023-04-07T15:32:33.006Z,100329.99
2023-04-07T15:35:01.363Z,100326.48
2023-04-07T15:37:29.904Z,100332.19
2023-04-07T15:39:58.321Z,100335.52
2023-04-07T15:42:26.946Z,100337.23
2023-04-07T15:44:55.661Z,100342.54
2023-04-07T15:47:24.515Z,100342.23
2023-04-07T15:49:53.093Z,100342.66
2023-04-07T15:52:21.710Z,100345.31
2023-04-07T15:54:54.161Z,100345.31
2023-04-07T15:57:22.511Z,100345.27
2023-04-07T15:59:52.608Z,100350.33
2023-04-07T16:02:21.044Z,100349.78
2023-04-07T16:04:49.521Z,100351.05
2023-04-07T16:07:19.293Z,100350.27
2023-04-07T16:09:48.355Z,100352.05
2023-04-07T16:12:17.368Z,100357.42
2023-04-07T16:14:46.454Z,100359.23
2023-04-07T16:17:14.908Z,100361.23
2023-04-07T16:19:43.001Z,100367.13
2023-04-07T16:22:11.631Z,100373.76
2023-04-07T16:24:41.059Z,100376.48
2023-04-07T16:27:09.357Z,100376.88
2023-04-07T16:29:37.705Z,100379.38
2023-04-07T16:32:07.116Z,100386.05
2023-04-07T16:34:36.383Z,100389.67
2023-04-07T16:37:05.110Z,100390.89
2023-04-07T16:39:34.212Z,100390.05
2023-04-07T16:42:02.611Z,100394.41
2023-04-07T16:44:33.117Z,100394.23
2023-04-07T16:47:03.271Z,100398.55
2023-04-07T16:49:32.407Z,100403.41
2023-04-07T16:52:01.090Z,100405.86
2023-04-07T16:54:30.354Z,100406.33
2023-04-07T16:56:59.070Z,100408.35
2023-04-07T16:59:27.454Z,100411.34
2023-04-07T17:01:55.888Z,100416.05
2023-04-07T17:04:24.360Z,100419.78
2023-04-07T17:06:53.381Z,100423.67
2023-04-07T17:09:21.629Z,100426.77
2023-04-07T17:11:49.886Z,100427.80
2023-04-07T17:14:18.419Z,100428.16
2023-04-07T17:16:47.355Z,100430.19
2023-04-07T17:19:16.192Z,100429.84
2023-04-07T17:21:45.483Z,100430.05
2023-04-07T17:24:15.864Z,100436.78
2023-04-07T17:26:47.118Z,100441.56
2023-04-07T17:29:15.898Z,100446.73
2023-04-07T17:31:45.000Z,100447.36
2023-04-07T17:34:13.358Z,100448.29
2023-04-07T17:36:41.961Z,100450.71
2023-04-07T17:39:10.221Z,100452.23
2023-04-07T17:41:38.686Z,100458.83
2023-04-07T17:44:07.116Z,100459.13
2023-04-07T17:46:36.393Z,100466.29
2023-04-07T17:49:04.719Z,100468.92
2023-04-07T17:51:33.123Z,100475.48
2023-04-07T17:54:02.519Z,100473.93
2023-04-07T17:56:31.519Z,100477.55
2023-04-07T17:59:00.031Z,100481.14
2023-04-07T18:01:28.498Z,100485.45
2023-04-07T18:03:57.522Z,100491.14
2023-04-07T18:06:26.036Z,100496.20
2023-04-07T18:09:07.485Z,100506.15
2023-04-07T18:11:36.960Z,100513.64
2023-04-07T18:14:05.463Z,100516.35
2023-04-07T18:16:34.847Z,100518.81
2023-04-07T18:19:04.590Z,100524.66
2023-04-07T18:21:35.435Z,100531.18
2023-04-07T18:24:04.008Z,100532.80
2023-04-07T18:26:32.796Z,100534.70
2023-04-07T18:29:02.269Z,100536.30
2023-04-07T18:31:33.237Z,100540.60
2023-04-07T18:34:02.750Z,100539.69
2023-04-07T18:36:32.057Z,100542.35
2023-04-07T18:39:01.309Z,100544.09
2023-04-07T18:41:29.842Z,100548.31
2023-04-07T18:43:58.836Z,100552.73
2023-04-07T18:46:27.859Z,100556.82
2023-04-07T18:48:56.633Z,100562.70
2023-04-07T18:51:24.943Z,100569.02
2023-04-07T18:53:53.435Z,100575.84
2023-04-07T18:56:21.907Z,100578.70
2023-04-07T18:58:51.580Z,100584.92
2023-04-07T19:01:20.204Z,100587.84
2023-04-07T19:03:49.234Z,100592.23
2023-04-07T19:06:17.899Z,100590.64
2023-04-07T19:08:46.702Z,100590.50
2023-04-07T19:11:15.060Z,100596.17
2023-04-07T19:13:43.687Z,100597.67
2023-04-07T19:16:12.009Z,100603.09
2023-04-07T19:18:40.951Z,100606.64
2023-04-07T19:21:10.082Z,100606.68
2023-04-07T19:23:41.058Z,100612.79
2023-04-07T19:26:11.001Z,100615.15
2023-04-07T19:28:41.362Z,100619.48
2023-04-07T19:31:11.005Z,100622.73
2023-04-07T19:33:39.311Z,100624.85
2023-04-07T19:36:07.742Z,100625.42
2023-04-07T19:38:36.200Z,100631.27
2023-04-07T19:41:05.412Z,100633.90
2023-04-07T19:43:34.941Z,100639.50
2023-04-07T19:46:03.971Z,100637.10
2023-04-07T19:48:33.210Z,100643.73
2023-04-07T19:51:02.327Z,100643.80
2023-04-07T19:53:30.989Z,100646.11
2023-04-07T19:56:02.493Z,100642.73
2023-04-07T19:58:32.116Z,100646.21
2023-04-07T20:01:01.173Z,100646.24
2023-04-07T20:03:30.600Z,100652.92
2023-04-07T20:06:00.499Z,100654.51
2023-04-07T20:08:29.096Z,100662.27
2023-04-07T20:10:58.929Z,100667.13
2023-04-07T20:13:28.407Z,100665.46
2023-04-07T20:15:57.092Z,100668.80
2023-04-07T20:18:25.294Z,100672.20
2023-04-07T20:20:58.859Z,100675.63
2023-04-07T20:23:28.034Z,100678.46
2023-04-07T20:25:56.718Z,100678.38
2023-04-07T20:28:26.953Z,100685.04
2023-04-07T20:30:55.510Z,100688.28
2023-04-07T20:33:23.971Z,100688.14
2023-04-07T20:35:53.085Z,100682.90
2023-04-07T20:38:21.485Z,100683.67
2023-04-07T20:40:49.757Z,100687.69
2023-04-07T20:43:20.851Z,100690.11
2023-04-07T20:45:49.940Z,100696.95
2023-04-07T20:48:24.111Z,100695.96
2023-04-07T20:50:53.833Z,100700.23
2023-04-07T20:53:22.305Z,100705.06
2023-04-07T20:55:51.480Z,100711.17
2023-04-07T20:58:20.219Z,100713.17
2023-04-07T21:00:55.761Z,100712.21
2023-04-07T21:03:26.110Z,100715.57
2023-04-07T21:05:56.872Z,100715.91
2023-04-07T21:08:25.683Z,100718.38
2023-04-07T21:10:55.165Z,100718.08
2023-04-07T21:13:26.348Z,100719.78
2023-04-07T21:15:57.970Z,100720.05
2023-04-07T21:18:27.782Z,100722.55
2023-04-07T21:20:58.345Z,100721.46
2023-04-07T21:23:27.294Z,100723.75
2023-04-07T21:25:59.632Z,100726.30
2023-04-07T21:28:27.882Z,100727.48
2023-04-07T21:30:57.424Z,100733.56
2023-04-07T21:33:26.408Z,100731.48
2023-04-07T21:35:56.774Z,100738.71
2023-04-07T21:38:27.584Z,100742.88
2023-04-07T21:40:57.998Z,100743.13
2023-04-07T21:43:29.393Z,100743.57
2023-04-07T21:45:58.821Z,100748.87
2023-04-07T21:48:27.377Z,100748.52
2023-04-07T21:50:57.639Z,100753.05
2023-04-07T21:53:26.363Z,100754.48
2023-04-07T21:55:54.757Z,100754.76
2023-04-07T21:58:23.718Z,100757.66
2023-04-07T22:00:53.728Z,100757.84
2023-04-07T22:03:24.567Z,100758.40
2023-04-07T22:05:53.128Z,100763.03
2023-04-07T22:08:21.673Z,100762.91
2023-04-07T22:10:51.885Z,100761.16
2023-04-07T22:13:20.961Z,100760.06
2023-04-07T22:15:51.521Z,100759.18
2023-04-07T22:18:22.179Z,100757.92
2023-04-07T22:20:52.738Z,100762.31
2023-04-07T22:23:21.317Z,100764.38
2023-04-07T22:25:50.518Z,100766.41
2023-04-07T22:28:19.741Z,100770.77
2023-04-07T22:30:47.795Z,100767.15
2023-04-07T22:33:15.916Z,100778.23
2023-04-07T22:35:44.862Z,100778.06
2023-04-07T22:38:13.712Z,100776.68
2023-04-07T22:40:42.120Z,100779.88
2023-04-07T22:43:11.202Z,100783.67
2023-04-07T22:45:40.422Z,100784.77
2023-04-07T22:48:09.907Z,100789.73
2023-04-07T22:50:38.536Z,100785.38
2023-04-07T22:53:07.596Z,100785.12
2023-04-07T22:55:36.747Z,100790.68
2023-04-07T22:58:06.509Z,100791.63
2023-04-07T23:00:35.746Z,100791.69
2023-04-07T23:03:05.119Z,100790.41
2023-04-07T23:05:34.366Z,100795.40
2023-04-07T23:08:04.058Z,100800.69
2023-04-07T23:10:32.705Z,100798.57
2023-04-07T23:13:01.819Z,100800.64
2023-04-07T23:15:30.974Z,100802.11
2023-04-07T23:17:59.884Z,100800.23
2023-04-07T23:20:28.705Z,100801.95
2023-04-07T23:22:57.389Z,100803.98
2023-04-07T23:25:28.175Z,100804.72
2023-04-07T23:27:57.224Z,100803.14
2023-04-07T23:30:26.770Z,100807.40
2023-04-07T23:32:55.102Z,100804.55
2023-04-07T23:35:24.198Z,100805.02
2023-04-07T23:37:53.293Z,100805.51
2023-04-07T23:40:22.654Z,100804.61
2023-04-07T23:42:52.027Z,100800.77
2023-04-07T23:45:22.045Z,100800.99
2023-04-07T23:47:51.219Z,100797.08
2023-04-07T23:50:19.642Z,100804.27
2023-04-07T23:52:48.641Z,100803.67
2023-04-07T23:55:17.622Z,100803.81
2023-04-07T23:57:47.113Z,100806.36
